createdAt,value
2022-12-31T00:00:09.032Z,0.22
2022-12-31T00:02:35.279Z,0.30
2022-12-31T00:05:01.492Z,0.50
2022-12-31T00:07:27.645Z,1.05
2022-12-31T00:09:53.773Z,0.60
2022-12-31T00:12:19.913Z,0.17
2022-12-31T00:14:46.147Z,0.30
2022-12-31T00:17:12.313Z,0.03
2022-12-31T00:19:38.464Z,0.28
2022-12-31T00:22:04.628Z,0.35
2022-12-31T00:24:30.774Z,0.52
2022-12-31T00:26:56.923Z,0.38
2022-12-31T00:29:23.043Z,0.05
2022-12-31T00:31:49.193Z,0.28
2022-12-31T00:34:15.307Z,0.22
2022-12-31T00:36:41.459Z,0.43
2022-12-31T00:39:07.590Z,0.57
2022-12-31T00:41:33.709Z,0.60
2022-12-31T00:43:59.850Z,0.43
2022-12-31T00:46:26.003Z,0.25
2022-12-31T00:48:52.204Z,0.28
2022-12-31T00:51:18.414Z,0.52
2022-12-31T00:53:44.543Z,0.75
2022-12-31T00:56:10.669Z,0.15
2022-12-31T00:58:36.835Z,1.25
2022-12-31T01:01:03.055Z,0.15
2022-12-31T01:03:29.271Z,0.20
2022-12-31T01:05:55.501Z,0.13
2022-12-31T01:08:21.641Z,0.40
2022-12-31T01:10:47.755Z,0.65
2022-12-31T01:13:13.911Z,0.20
2022-12-31T01:15:40.060Z,0.70
2022-12-31T01:18:06.208Z,0.73
2022-12-31T01:20:32.366Z,0.40
2022-12-31T01:22:58.487Z,0.30
2022-12-31T01:25:24.611Z,0.85
2022-12-31T01:27:50.773Z,0.30
2022-12-31T01:30:16.936Z,0.30
2022-12-31T01:32:43.052Z,0.25
2022-12-31T01:35:09.189Z,0.93
2022-12-31T01:37:35.355Z,0.82
2022-12-31T01:40:01.468Z,0.30
2022-12-31T01:42:28.743Z,0.50
2022-12-31T01:44:54.850Z,1.13
2022-12-31T01:47:20.986Z,0.20
2022-12-31T01:49:47.115Z,0.13
2022-12-31T01:52:13.256Z,0.50
2022-12-31T01:54:39.379Z,0.22
2022-12-31T01:57:05.514Z,0.68
2022-12-31T01:59:31.634Z,0.50
2022-12-31T02:01:57.809Z,0.20
2022-12-31T02:04:24.031Z,0.60
2022-12-31T02:06:50.147Z,1.95
2022-12-31T02:09:16.273Z,0.30
2022-12-31T02:11:42.420Z,0.20
2022-12-31T02:14:08.535Z,0.47
2022-12-31T02:16:34.656Z,0.20
2022-12-31T02:19:00.790Z,0.17
2022-12-31T02:21:26.929Z,0.43
2022-12-31T02:23:53.113Z,0.28
2022-12-31T02:26:19.212Z,0.30
2022-12-31T02:28:45.343Z,0.20
2022-12-31T02:31:11.503Z,0.20
2022-12-31T02:33:37.628Z,0.10
2022-12-31T02:36:03.813Z,0.30
2022-12-31T02:38:29.941Z,0.32
2022-12-31T02:40:56.142Z,0.43
2022-12-31T02:43:22.541Z,0.20
2022-12-31T02:45:48.722Z,0.40
2022-12-31T02:48:14.845Z,0.00
2022-12-31T02:50:40.993Z,0.20
2022-12-31T02:53:07.132Z,1.35
2022-12-31T02:55:33.259Z,0.52
2022-12-31T02:57:59.396Z,0.55
2022-12-31T03:00:25.585Z,0.45
2022-12-31T03:02:51.809Z,0.10
2022-12-31T03:05:18.010Z,0.10
2022-12-31T03:07:44.139Z,0.85
2022-12-31T03:10:10.289Z,0.35
2022-12-31T03:12:36.418Z,0.60
2022-12-31T03:15:02.549Z,0.40
2022-12-31T03:17:28.703Z,0.43
2022-12-31T03:19:54.834Z,0.30
2022-12-31T03:22:20.978Z,0.20
2022-12-31T03:24:47.083Z,0.15
2022-12-31T03:27:13.201Z,0.50
2022-12-31T03:29:39.331Z,0.52
2022-12-31T03:32:05.463Z,0.22
2022-12-31T03:34:31.581Z,0.08
2022-12-31T03:36:57.705Z,0.22
2022-12-31T03:39:23.847Z,0.40
2022-12-31T03:41:49.961Z,0.13
2022-12-31T03:44:16.088Z,0.70
2022-12-31T03:46:42.208Z,0.57
2022-12-31T03:49:08.557Z,0.25
2022-12-31T03:51:34.892Z,1.00
2022-12-31T03:54:01.020Z,0.55
2022-12-31T03:56:27.164Z,0.20
2022-12-31T03:58:53.285Z,0.32
2022-12-31T04:01:19.521Z,0.20
2022-12-31T04:03:45.733Z,0.55
2022-12-31T04:06:11.911Z,0.32
2022-12-31T04:08:38.035Z,0.20
2022-12-31T04:11:04.179Z,0.10
2022-12-31T04:13:30.276Z,0.10
2022-12-31T04:15:56.430Z,0.22
2022-12-31T04:18:22.559Z,0.95
2022-12-31T04:20:48.742Z,1.17
2022-12-31T04:23:14.902Z,0.68
2022-12-31T04:25:41.041Z,1.17
2022-12-31T04:28:07.189Z,0.20
2022-12-31T04:30:33.316Z,0.47
2022-12-31T04:32:59.470Z,0.80
2022-12-31T04:35:25.603Z,0.43
2022-12-31T04:37:51.799Z,0.55
2022-12-31T04:40:17.917Z,0.40
2022-12-31T04:42:44.046Z,0.17
2022-12-31T04:45:10.165Z,0.30
2022-12-31T04:47:36.295Z,0.43
2022-12-31T04:50:02.437Z,0.30
2022-12-31T04:52:28.575Z,0.20
2022-12-31T04:54:54.709Z,0.25
2022-12-31T04:57:20.855Z,0.30
2022-12-31T04:59:47.252Z,0.30
2022-12-31T05:02:13.505Z,0.45
2022-12-31T05:04:39.793Z,0.25
2022-12-31T05:07:05.949Z,0.32
2022-12-31T05:09:32.070Z,0.22
2022-12-31T05:11:58.220Z,1.25
2022-12-31T05:14:24.403Z,0.98
2022-12-31T05:16:50.616Z,0.17
2022-12-31T05:19:16.967Z,0.68
2022-12-31T05:21:43.107Z,0.40
2022-12-31T05:24:09.227Z,0.52
2022-12-31T05:26:35.386Z,0.20
2022-12-31T05:29:01.534Z,0.30
2022-12-31T05:31:27.686Z,0.00
2022-12-31T05:33:53.859Z,0.65
2022-12-31T05:36:19.988Z,1.58
2022-12-31T05:38:46.105Z,0.38
2022-12-31T05:41:12.209Z,0.43
2022-12-31T05:43:38.346Z,0.10
2022-12-31T05:46:04.519Z,0.63
2022-12-31T05:48:30.735Z,0.13
2022-12-31T05:50:56.869Z,0.30
2022-12-31T05:53:22.995Z,0.50
2022-12-31T05:55:49.135Z,0.30
2022-12-31T05:58:15.253Z,0.88
2022-12-31T06:00:41.357Z,1.55
2022-12-31T06:03:07.556Z,0.20
2022-12-31T06:05:33.838Z,1.17
2022-12-31T06:07:59.974Z,0.50
2022-12-31T06:10:26.177Z,0.30
2022-12-31T06:12:52.297Z,0.10
2022-12-31T06:15:18.411Z,0.70
2022-12-31T06:17:44.540Z,0.40
2022-12-31T06:20:13.089Z,0.30
2022-12-31T06:22:39.637Z,0.47
2022-12-31T06:25:05.753Z,0.45
2022-12-31T06:27:31.923Z,0.43
2022-12-31T06:29:58.058Z,0.73
2022-12-31T06:32:24.203Z,0.30
2022-12-31T06:34:50.339Z,0.28
2022-12-31T06:37:16.483Z,0.70
2022-12-31T06:39:42.632Z,0.20
2022-12-31T06:42:08.756Z,0.38
2022-12-31T06:44:34.880Z,0.22
2022-12-31T06:47:01.025Z,0.55
2022-12-31T06:49:27.195Z,0.50
2022-12-31T06:51:53.310Z,0.30
2022-12-31T06:54:19.439Z,0.43
2022-12-31T06:56:45.566Z,0.35
2022-12-31T06:59:11.688Z,0.50
2022-12-31T07:01:37.904Z,0.50
2022-12-31T07:04:04.090Z,0.80
2022-12-31T07:06:30.214Z,0.90
2022-12-31T07:08:56.417Z,0.55
2022-12-31T07:11:22.776Z,1.67
2022-12-31T07:13:48.910Z,0.68
2022-12-31T07:16:15.081Z,0.70
2022-12-31T07:18:41.243Z,0.68
2022-12-31T07:21:07.357Z,1.17
2022-12-31T07:23:33.496Z,1.02
2022-12-31T07:25:59.664Z,0.55
2022-12-31T07:28:25.801Z,0.32
2022-12-31T07:30:51.963Z,0.40
2022-12-31T07:33:18.118Z,0.28
2022-12-31T07:35:44.237Z,2.55
2022-12-31T07:38:10.382Z,0.70
2022-12-31T07:40:36.494Z,0.65
2022-12-31T07:43:02.641Z,0.70
2022-12-31T07:45:28.748Z,0.63
2022-12-31T07:47:58.971Z,0.73
2022-12-31T07:50:28.517Z,1.60
2022-12-31T07:52:54.667Z,0.40
2022-12-31T07:55:20.772Z,0.70
2022-12-31T07:57:46.937Z,1.55
2022-12-31T08:00:13.084Z,0.65
2022-12-31T08:02:39.235Z,0.57
2022-12-31T08:05:05.396Z,0.60
2022-12-31T08:07:31.527Z,0.50
2022-12-31T08:09:57.680Z,0.80
2022-12-31T08:12:23.799Z,0.75
2022-12-31T08:14:49.905Z,1.45
2022-12-31T08:17:16.027Z,0.50
2022-12-31T08:19:42.120Z,1.38
2022-12-31T08:22:08.254Z,0.75
2022-12-31T08:24:34.377Z,2.13
2022-12-31T08:27:00.504Z,2.00
2022-12-31T08:29:26.619Z,0.82
2022-12-31T08:31:52.825Z,0.70
2022-12-31T08:34:18.964Z,1.98
2022-12-31T08:36:47.029Z,1.00
2022-12-31T08:39:13.138Z,1.73
2022-12-31T08:41:42.924Z,1.08
2022-12-31T08:44:09.426Z,0.65
2022-12-31T08:46:35.563Z,0.80
2022-12-31T08:49:01.666Z,1.40
2022-12-31T08:51:27.817Z,1.40
2022-12-31T08:53:53.945Z,1.00
2022-12-31T08:56:20.060Z,0.93
2022-12-31T08:58:46.198Z,1.42
2022-12-31T09:01:12.515Z,0.80
2022-12-31T09:03:38.725Z,0.93
2022-12-31T09:06:04.881Z,2.15
2022-12-31T09:08:31.006Z,1.17
2022-12-31T09:10:57.115Z,1.75
2022-12-31T09:13:23.261Z,0.90
2022-12-31T09:15:49.421Z,1.45
2022-12-31T09:18:15.585Z,0.90
2022-12-31T09:20:43.245Z,4.20
2022-12-31T09:23:10.163Z,0.70
2022-12-31T09:25:36.290Z,1.45
2022-12-31T09:28:02.443Z,1.17
2022-12-31T09:30:28.599Z,3.13
2022-12-31T09:33:00.542Z,1.95
2022-12-31T09:35:27.379Z,2.92
2022-12-31T09:37:53.506Z,1.65
2022-12-31T09:40:19.692Z,1.27
2022-12-31T09:42:45.857Z,2.17
2022-12-31T09:45:11.977Z,2.40
2022-12-31T09:47:38.133Z,1.05
2022-12-31T09:50:04.260Z,2.03
2022-12-31T09:52:30.407Z,1.52
2022-12-31T09:54:56.524Z,6.85
2022-12-31T09:57:22.669Z,2.67
2022-12-31T09:59:48.794Z,1.58
2022-12-31T10:02:15.102Z,2.25
2022-12-31T10:04:41.309Z,1.27
2022-12-31T10:07:07.445Z,1.25
2022-12-31T10:09:33.566Z,3.53
2022-12-31T10:11:59.715Z,1.35
2022-12-31T10:14:25.831Z,1.00
2022-12-31T10:16:52.007Z,0.68
2022-12-31T10:19:18.177Z,0.98
2022-12-31T10:21:44.524Z,0.98
2022-12-31T10:24:10.621Z,0.90
2022-12-31T10:26:36.768Z,1.10
2022-12-31T10:29:02.881Z,2.25
2022-12-31T10:31:29.017Z,3.05
2022-12-31T10:33:55.120Z,2.35
2022-12-31T10:36:21.271Z,1.30
2022-12-31T10:38:47.428Z,0.82
2022-12-31T10:41:13.562Z,1.38
2022-12-31T10:43:39.703Z,1.55
2022-12-31T10:46:05.893Z,1.00
2022-12-31T10:48:32.051Z,0.90
2022-12-31T10:50:58.164Z,1.20
2022-12-31T10:53:24.286Z,4.10
2022-12-31T10:55:50.425Z,1.42
2022-12-31T10:58:16.549Z,1.90
2022-12-31T11:00:42.704Z,1.05
2022-12-31T11:03:08.884Z,2.53
2022-12-31T11:05:35.058Z,1.85
2022-12-31T11:08:01.207Z,1.52
2022-12-31T11:10:27.476Z,1.38
2022-12-31T11:12:53.659Z,2.38
2022-12-31T11:15:19.774Z,0.65
2022-12-31T11:17:45.912Z,0.93
2022-12-31T11:20:12.079Z,1.20
2022-12-31T11:22:38.207Z,1.75
2022-12-31T11:25:04.317Z,2.00
2022-12-31T11:27:30.455Z,2.47
2022-12-31T11:29:56.574Z,3.13
2022-12-31T11:32:22.717Z,2.00
2022-12-31T11:34:48.876Z,4.95
2022-12-31T11:37:15.053Z,1.67
2022-12-31T11:39:41.177Z,3.20
2022-12-31T11:42:07.280Z,5.65
2022-12-31T11:44:33.418Z,2.72
2022-12-31T11:46:59.583Z,4.82
2022-12-31T11:49:25.727Z,1.70
2022-12-31T11:51:51.833Z,1.48
2022-12-31T11:54:18.000Z,0.98
2022-12-31T11:56:44.181Z,1.27
2022-12-31T11:59:14.370Z,1.15
2022-12-31T12:01:44.928Z,2.35
2022-12-31T12:04:11.111Z,0.80
2022-12-31T12:06:37.278Z,3.03
2022-12-31T12:09:03.420Z,1.45
2022-12-31T12:11:29.578Z,1.92
2022-12-31T12:13:55.682Z,0.88
2022-12-31T12:16:21.890Z,2.08
2022-12-31T12:18:48.076Z,0.80
2022-12-31T12:21:14.187Z,0.55
2022-12-31T12:23:40.340Z,2.17
2022-12-31T12:26:06.533Z,1.15
2022-12-31T12:28:32.659Z,1.83
2022-12-31T12:30:58.845Z,1.38
2022-12-31T12:33:25.021Z,2.60
2022-12-31T12:35:51.164Z,3.58
2022-12-31T12:38:17.333Z,1.20
2022-12-31T12:40:43.452Z,2.80
2022-12-31T12:43:09.595Z,1.08
2022-12-31T12:45:35.715Z,1.50
2022-12-31T12:48:01.884Z,2.60
2022-12-31T12:50:27.998Z,4.60
2022-12-31T12:52:59.147Z,1.30
2022-12-31T12:55:25.766Z,1.30
2022-12-31T12:57:51.890Z,1.02
2022-12-31T13:00:18.037Z,1.02
2022-12-31T13:02:44.215Z,7.03
2022-12-31T13:05:10.384Z,2.15
2022-12-31T13:07:36.538Z,2.08
2022-12-31T13:10:02.678Z,0.90
2022-12-31T13:12:42.778Z,1.35
2022-12-31T13:15:14.897Z,2.72
2022-12-31T13:17:41.111Z,1.30
2022-12-31T13:20:07.254Z,2.95
2022-12-31T13:22:33.438Z,1.27
2022-12-31T13:24:59.569Z,2.35
2022-12-31T13:27:25.779Z,1.45
2022-12-31T13:29:51.906Z,2.35
2022-12-31T13:32:18.057Z,3.33
2022-12-31T13:34:44.169Z,5.07
2022-12-31T13:37:10.359Z,4.60
2022-12-31T13:39:36.494Z,2.58
2022-12-31T13:42:02.696Z,3.28
2022-12-31T13:44:28.843Z,4.22
2022-12-31T13:46:54.956Z,5.90
2022-12-31T13:49:21.100Z,7.10
2022-12-31T13:51:47.217Z,4.38
2022-12-31T13:54:13.335Z,4.47
2022-12-31T13:56:39.487Z,10.40
2022-12-31T13:59:05.657Z,6.47
2022-12-31T14:01:34.104Z,5.05
2022-12-31T14:04:00.503Z,3.25
2022-12-31T14:06:26.645Z,5.85
2022-12-31T14:08:52.754Z,5.10
2022-12-31T14:11:18.937Z,4.75
2022-12-31T14:13:45.069Z,6.90
2022-12-31T14:16:11.248Z,4.57
2022-12-31T14:18:37.437Z,6.82
2022-12-31T14:21:03.561Z,5.32
2022-12-31T14:23:29.727Z,13.93
2022-12-31T14:25:55.856Z,7.20
2022-12-31T14:28:22.029Z,4.00
2022-12-31T14:30:48.175Z,3.30
2022-12-31T14:33:14.318Z,3.40
2022-12-31T14:35:40.431Z,6.72
2022-12-31T14:38:06.564Z,10.88
2022-12-31T14:40:32.691Z,3.42
2022-12-31T14:42:58.802Z,4.43
2022-12-31T14:45:36.723Z,3.15
2022-12-31T14:48:03.085Z,2.85
2022-12-31T14:50:30.619Z,6.80
2022-12-31T14:52:57.107Z,2.88
2022-12-31T14:55:23.260Z,3.70
2022-12-31T15:00:35.586Z,5.15
2022-12-31T15:03:01.731Z,3.92
2022-12-31T15:05:27.915Z,6.18
2022-12-31T15:07:54.027Z,5.13
2022-12-31T15:10:20.159Z,6.28
2022-12-31T15:12:46.278Z,6.50
2022-12-31T15:15:12.429Z,14.32
2022-12-31T15:17:38.554Z,10.93
2022-12-31T15:20:04.695Z,10.30
2022-12-31T15:22:30.798Z,13.70
2022-12-31T15:24:56.917Z,10.38
2022-12-31T15:27:23.031Z,16.80
2022-12-31T15:29:49.135Z,17.63
2022-12-31T15:32:15.275Z,17.35
2022-12-31T15:34:41.379Z,16.00
2022-12-31T15:37:07.522Z,17.52
2022-12-31T15:39:33.641Z,14.43
2022-12-31T15:44:45.908Z,18.13
2022-12-31T15:47:12.029Z,18.08
2022-12-31T15:49:38.147Z,9.80
2022-12-31T15:52:04.290Z,15.10
2022-12-31T15:54:30.406Z,16.35
2022-12-31T15:56:56.527Z,11.77
2022-12-31T15:59:22.650Z,10.02
2022-12-31T16:01:48.912Z,13.88
2022-12-31T16:04:15.108Z,19.75
2022-12-31T16:06:44.920Z,11.27
2022-12-31T16:09:14.981Z,13.65
2022-12-31T16:11:41.171Z,13.18
2022-12-31T16:14:07.351Z,14.13
2022-12-31T16:16:33.462Z,16.42
2022-12-31T16:18:59.576Z,17.65
2022-12-31T16:21:25.709Z,17.77
2022-12-31T16:23:51.834Z,21.35
2022-12-31T16:26:17.950Z,22.10
2022-12-31T16:28:44.057Z,20.02
2022-12-31T16:31:10.220Z,33.15
2022-12-31T16:33:36.348Z,14.60
2022-12-31T16:36:02.482Z,16.08
2022-12-31T16:38:28.611Z,24.45
2022-12-31T16:40:54.739Z,24.77
2022-12-31T16:43:20.856Z,24.17
2022-12-31T16:45:46.978Z,24.88
2022-12-31T16:48:17.032Z,17.02
2022-12-31T16:50:43.508Z,19.23
2022-12-31T16:53:09.621Z,15.85
2022-12-31T16:55:35.747Z,14.98
2022-12-31T16:58:02.108Z,20.45
2022-12-31T17:00:28.246Z,16.52
2022-12-31T17:02:54.509Z,21.73
2022-12-31T17:05:20.736Z,18.98
2022-12-31T17:07:46.852Z,18.80
2022-12-31T17:10:12.999Z,17.88
2022-12-31T17:13:00.955Z,20.73
2022-12-31T17:15:25.230Z,23.33
2022-12-31T17:17:51.349Z,27.38
2022-12-31T17:20:17.498Z,27.70
2022-12-31T17:22:43.606Z,23.25
2022-12-31T17:25:09.742Z,27.85
2022-12-31T17:27:35.967Z,25.63
2022-12-31T17:30:02.141Z,30.67
2022-12-31T17:32:28.386Z,20.70
2022-12-31T17:34:54.529Z,19.60
2022-12-31T17:37:20.671Z,26.30
2022-12-31T17:39:46.792Z,27.05
2022-12-31T17:42:12.969Z,29.02
2022-12-31T17:44:39.091Z,29.50
2022-12-31T17:47:05.223Z,28.63
2022-12-31T17:49:31.364Z,29.13
2022-12-31T17:51:57.510Z,16.33
2022-12-31T17:54:23.673Z,18.15
2022-12-31T17:56:49.795Z,16.60
2022-12-31T17:59:15.913Z,17.73
2022-12-31T18:01:42.292Z,20.00
2022-12-31T18:04:08.575Z,12.70
2022-12-31T18:06:34.700Z,14.85
2022-12-31T18:09:00.849Z,20.40
2022-12-31T18:11:26.975Z,18.23
2022-12-31T18:13:53.099Z,22.20
2022-12-31T18:16:19.251Z,22.30
2022-12-31T18:18:45.588Z,23.27
2022-12-31T18:21:11.749Z,19.98
2022-12-31T18:23:37.866Z,21.60
2022-12-31T18:26:04.013Z,25.25
2022-12-31T18:28:30.150Z,25.63
2022-12-31T18:30:56.272Z,32.25
2022-12-31T18:33:22.739Z,31.92
2022-12-31T18:36:08.234Z,33.83
2022-12-31T18:38:34.987Z,22.25
2022-12-31T18:41:01.114Z,22.80
2022-12-31T18:43:27.318Z,30.25
2022-12-31T18:45:53.559Z,24.02
2022-12-31T18:48:19.748Z,27.75
2022-12-31T18:50:45.898Z,38.47
2022-12-31T18:53:12.035Z,31.52
2022-12-31T18:55:38.180Z,24.77
2022-12-31T18:58:04.292Z,20.05
2022-12-31T19:00:30.457Z,14.70
2022-12-31T19:02:56.646Z,18.15
2022-12-31T19:05:22.872Z,16.75
2022-12-31T19:07:49.027Z,15.57
2022-12-31T19:10:15.159Z,17.80
2022-12-31T19:12:41.352Z,20.63
2022-12-31T19:15:07.477Z,24.40
2022-12-31T19:17:33.602Z,32.50
2022-12-31T19:19:59.716Z,33.42
2022-12-31T19:22:25.851Z,31.80
2022-12-31T19:24:51.959Z,19.35
2022-12-31T19:27:18.140Z,43.80
2022-12-31T19:29:44.260Z,30.63
2022-12-31T19:32:10.409Z,32.22
2022-12-31T19:34:36.629Z,29.08
2022-12-31T19:37:02.758Z,22.90
2022-12-31T19:39:28.908Z,21.08
2022-12-31T19:41:59.199Z,18.38
2022-12-31T19:44:25.747Z,12.68
2022-12-31T19:46:51.892Z,15.00
2022-12-31T19:49:18.049Z,13.45
2022-12-31T19:51:44.187Z,20.33
2022-12-31T19:54:10.311Z,14.15
2022-12-31T19:56:36.477Z,17.50
2022-12-31T19:59:02.618Z,15.57
2022-12-31T20:01:28.828Z,25.88
2022-12-31T20:03:55.042Z,19.25
2022-12-31T20:06:21.163Z,21.05
2022-12-31T20:08:47.295Z,18.52
2022-12-31T20:11:13.543Z,19.10
2022-12-31T20:13:39.657Z,17.05
2022-12-31T20:16:05.779Z,19.35
2022-12-31T20:18:31.932Z,20.55
2022-12-31T20:20:58.043Z,24.38
2022-12-31T20:23:24.221Z,22.67
2022-12-31T20:25:50.364Z,22.63
2022-12-31T20:28:16.529Z,22.90
2022-12-31T20:30:42.713Z,25.92
2022-12-31T20:33:09.792Z,24.90
2022-12-31T20:35:38.271Z,29.02
2022-12-31T20:38:04.446Z,27.50
2022-12-31T20:40:30.569Z,27.45
2022-12-31T20:42:56.711Z,21.90
2022-12-31T20:45:22.853Z,19.00
2022-12-31T20:47:49.007Z,21.63
2022-12-31T20:50:15.265Z,18.08
2022-12-31T20:52:41.405Z,18.83
2022-12-31T20:55:07.547Z,20.45
2022-12-31T20:57:34.198Z,19.73
2022-12-31T21:00:00.403Z,20.48
2022-12-31T21:02:40.722Z,20.42
2022-12-31T21:05:08.140Z,19.65
2022-12-31T21:07:34.472Z,25.70
2022-12-31T21:10:00.621Z,19.70
2022-12-31T21:12:26.798Z,17.58
2022-12-31T21:14:52.930Z,30.45
2022-12-31T21:17:19.075Z,19.02
2022-12-31T21:19:45.197Z,16.17
2022-12-31T21:22:11.331Z,11.68
2022-12-31T21:24:37.443Z,16.42
2022-12-31T21:27:03.576Z,15.32
2022-12-31T21:29:34.306Z,12.73
2022-12-31T21:32:00.985Z,13.90
2022-12-31T21:34:27.102Z,13.25
2022-12-31T21:36:53.222Z,16.25
2022-12-31T21:39:19.342Z,14.05
2022-12-31T21:41:45.440Z,16.13
2022-12-31T21:44:11.562Z,20.67
2022-12-31T21:46:37.790Z,21.95
2022-12-31T21:49:03.970Z,21.58
2022-12-31T21:51:30.169Z,42.53
2022-12-31T21:53:56.292Z,18.60
2022-12-31T21:56:22.462Z,16.95
2022-12-31T21:58:48.602Z,22.35
2022-12-31T22:01:14.892Z,20.45
2022-12-31T22:03:41.208Z,28.35
2022-12-31T22:06:07.428Z,28.45
2022-12-31T22:08:33.612Z,24.73
2022-12-31T22:10:59.740Z,24.27
2022-12-31T22:13:25.893Z,23.85
2022-12-31T22:15:52.140Z,22.70
2022-12-31T22:18:18.328Z,29.25
2022-12-31T22:20:44.461Z,25.95
2022-12-31T22:23:10.582Z,23.02
2022-12-31T22:25:36.747Z,21.52
2022-12-31T22:28:36.749Z,21.05
2022-12-31T22:30:49.118Z,20.33
2022-12-31T22:33:15.298Z,22.35
2022-12-31T22:35:41.545Z,16.75
2022-12-31T22:38:11.854Z,16.65
2022-12-31T22:40:38.554Z,16.23
2022-12-31T22:43:04.680Z,21.52
2022-12-31T22:45:30.798Z,23.65
2022-12-31T22:47:57.062Z,34.28
2022-12-31T22:50:23.222Z,53.92
2022-12-31T22:52:49.409Z,49.35
2022-12-31T22:55:15.609Z,65.05
2022-12-31T22:57:41.885Z,75.47
2022-12-31T23:00:08.012Z,39.17
2022-12-31T23:02:39.862Z,260.08
2022-12-31T23:05:16.152Z,373.58
2022-12-31T23:07:42.634Z,202.90
2022-12-31T23:10:08.764Z,239.70
2022-12-31T23:12:34.941Z,484.27
2022-12-31T23:15:01.085Z,314.92
2022-12-31T23:17:29.486Z,302.25
2022-12-31T23:19:57.906Z,427.92
2022-12-31T23:22:24.028Z,337.70
2022-12-31T23:24:50.155Z,210.95
2022-12-31T23:27:16.300Z,202.85
2022-12-31T23:29:47.080Z,203.73
2022-12-31T23:32:13.751Z,173.40
2022-12-31T23:34:39.891Z,196.00
2022-12-31T23:37:06.064Z,185.60
2022-12-31T23:39:32.185Z,135.65
2022-12-31T23:41:58.316Z,145.77
2022-12-31T23:44:24.466Z,136.85
2022-12-31T23:46:50.671Z,209.27
2022-12-31T23:49:16.845Z,103.65
2022-12-31T23:51:43.004Z,102.95
2022-12-31T23:54:09.181Z,116.57
2022-12-31T23:56:35.356Z,133.15
2022-12-31T23:59:01.523Z,122.68
